sensor_id;sensor_type;location;lat;lon;timestamp;P1;durP1;ratioP1;P2;durP2;ratioP2
47309;SDS011;33046;52.270;6.832;2022-12-29T00:02:04;1.90;;;1.38;;
47309;SDS011;33046;52.270;6.832;2022-12-29T00:04:11;1.48;;;1.10;;
47309;SDS011;33046;52.270;6.832;2022-12-29T00:06:21;1.63;;;1.00;;
47309;SDS011;33046;52.270;6.832;2022-12-29T00:08:28;1.77;;;1.20;;
47309;SDS011;33046;52.270;6.832;2022-12-29T00:10:35;1.67;;;1.20;;
47309;SDS011;33046;52.270;6.832;2022-12-29T00:12:42;1.52;;;1.00;;
47309;SDS011;33046;52.270;6.832;2022-12-29T00:14:48;1.95;;;0.90;;
47309;SDS011;33046;52.270;6.832;2022-12-29T00:16:55;1.70;;;0.93;;
47309;SDS011;33046;52.270;6.832;2022-12-29T00:19:02;1.52;;;1.02;;
47309;SDS011;33046;52.270;6.832;2022-12-29T00:21:09;2.53;;;0.85;;
47309;SDS011;33046;52.270;6.832;2022-12-29T00:23:20;1.30;;;1.10;;
47309;SDS011;33046;52.270;6.832;2022-12-29T00:25:28;1.55;;;0.93;;
47309;SDS011;33046;52.270;6.832;2022-12-29T00:27:34;1.58;;;1.02;;
47309;SDS011;33046;52.270;6.832;2022-12-29T00:29:41;1.23;;;1.00;;
47309;SDS011;33046;52.270;6.832;2022-12-29T00:31:48;1.80;;;0.90;;
47309;SDS011;33046;52.270;6.832;2022-12-29T00:33:55;2.60;;;1.60;;
47309;SDS011;33046;52.270;6.832;2022-12-29T00:36:02;3.03;;;1.17;;
47309;SDS011;33046;52.270;6.832;2022-12-29T00:38:11;1.13;;;1.00;;
47309;SDS011;33046;52.270;6.832;2022-12-29T00:40:20;2.78;;;0.95;;
47309;SDS011;33046;52.270;6.832;2022-12-29T00:42:27;1.13;;;0.90;;
47309;SDS011;33046;52.270;6.832;2022-12-29T00:44:34;1.27;;;0.93;;
47309;SDS011;33046;52.270;6.832;2022-12-29T00:46:41;1.63;;;1.05;;
47309;SDS011;33046;52.270;6.832;2022-12-29T00:48:49;1.73;;;1.00;;
47309;SDS011;33046;52.270;6.832;2022-12-29T00:50:55;1.48;;;0.90;;
47309;SDS011;33046;52.270;6.832;2022-12-29T00:53:02;1.42;;;0.98;;
47309;SDS011;33046;52.270;6.832;2022-12-29T00:55:09;0.80;;;0.70;;
47309;SDS011;33046;52.270;6.832;2022-12-29T00:57:18;1.20;;;0.90;;
47309;SDS011;33046;52.270;6.832;2022-12-29T00:59:25;2.53;;;0.90;;
47309;SDS011;33046;52.270;6.832;2022-12-29T01:01:32;1.60;;;0.95;;
47309;SDS011;33046;52.270;6.832;2022-12-29T01:03:39;1.52;;;1.17;;
47309;SDS011;33046;52.270;6.832;2022-12-29T01:05:46;1.70;;;1.00;;
47309;SDS011;33046;52.270;6.832;2022-12-29T01:07:53;1.00;;;0.80;;
47309;SDS011;33046;52.270;6.832;2022-12-29T01:09:59;1.00;;;0.90;;
47309;SDS011;33046;52.270;6.832;2022-12-29T01:12:07;1.17;;;0.77;;
47309;SDS011;33046;52.270;6.832;2022-12-29T01:14:16;1.15;;;0.80;;
47309;SDS011;33046;52.270;6.832;2022-12-29T01:16:24;1.90;;;0.80;;
47309;SDS011;33046;52.270;6.832;2022-12-29T01:18:31;2.95;;;1.33;;
47309;SDS011;33046;52.270;6.832;2022-12-29T01:20:38;1.30;;;0.73;;
47309;SDS011;33046;52.270;6.832;2022-12-29T01:22:45;1.40;;;0.77;;
47309;SDS011;33046;52.270;6.832;2022-12-29T01:24:52;0.88;;;0.70;;
47309;SDS011;33046;52.270;6.832;2022-12-29T01:26:58;1.05;;;0.70;;
47309;SDS011;33046;52.270;6.832;2022-12-29T01:29:05;1.17;;;0.80;;
47309;SDS011;33046;52.270;6.832;2022-12-29T01:31:14;1.05;;;0.60;;
47309;SDS011;33046;52.270;6.832;2022-12-29T01:33:21;1.23;;;0.70;;
47309;SDS011;33046;52.270;6.832;2022-12-29T01:35:28;1.73;;;0.55;;
47309;SDS011;33046;52.270;6.832;2022-12-29T01:37:36;0.68;;;0.50;;
47309;SDS011;33046;52.270;6.832;2022-12-29T01:39:43;0.70;;;0.40;;
47309;SDS011;33046;52.270;6.832;2022-12-29T01:41:50;0.82;;;0.40;;
47309;SDS011;33046;52.270;6.832;2022-12-29T01:43:58;1.88;;;0.70;;
47309;SDS011;33046;52.270;6.832;2022-12-29T01:46:06;0.52;;;0.40;;
47309;SDS011;33046;52.270;6.832;2022-12-29T01:48:25;1.10;;;0.40;;
47309;SDS011;33046;52.270;6.832;2022-12-29T01:50:32;2.10;;;0.60;;
47309;SDS011;33046;52.270;6.832;2022-12-29T01:52:42;1.08;;;0.40;;
47309;SDS011;33046;52.270;6.832;2022-12-29T01:54:54;1.17;;;0.38;;
47309;SDS011;33046;52.270;6.832;2022-12-29T01:57:03;0.20;;;0.20;;
47309;SDS011;33046;52.270;6.832;2022-12-29T01:59:15;1.60;;;0.35;;
47309;SDS011;33046;52.270;6.832;2022-12-29T02:01:27;1.95;;;0.40;;
47309;SDS011;33046;52.270;6.832;2022-12-29T02:03:34;0.90;;;0.30;;
47309;SDS011;33046;52.270;6.832;2022-12-29T02:05:44;0.20;;;0.20;;
47309;SDS011;33046;52.270;6.832;2022-12-29T02:07:56;0.60;;;0.20;;
47309;SDS011;33046;52.270;6.832;2022-12-29T02:10:04;1.05;;;0.50;;
47309;SDS011;33046;52.270;6.832;2022-12-29T02:12:11;0.70;;;0.40;;
47309;SDS011;33046;52.270;6.832;2022-12-29T02:14:19;0.82;;;0.30;;
47309;SDS011;33046;52.270;6.832;2022-12-29T02:16:38;0.65;;;0.30;;
47309;SDS011;33046;52.270;6.832;2022-12-29T02:18:55;1.30;;;0.45;;
47309;SDS011;33046;52.270;6.832;2022-12-29T02:23:59;0.70;;;0.50;;
47309;SDS011;33046;52.270;6.832;2022-12-29T02:26:29;2.58;;;0.52;;
47309;SDS011;33046;52.270;6.832;2022-12-29T02:31:46;0.55;;;0.47;;
47309;SDS011;33046;52.270;6.832;2022-12-29T02:34:00;0.45;;;0.40;;
47309;SDS011;33046;52.270;6.832;2022-12-29T02:36:19;0.43;;;0.40;;
47309;SDS011;33046;52.270;6.832;2022-12-29T02:38:35;1.27;;;0.88;;
47309;SDS011;33046;52.270;6.832;2022-12-29T02:40:55;0.50;;;0.50;;
47309;SDS011;33046;52.270;6.832;2022-12-29T02:43:11;0.77;;;0.50;;
47309;SDS011;33046;52.270;6.832;2022-12-29T02:45:26;1.05;;;0.88;;
47309;SDS011;33046;52.270;6.832;2022-12-29T02:47:39;0.93;;;0.80;;
47309;SDS011;33046;52.270;6.832;2022-12-29T02:49:54;1.90;;;0.70;;
47309;SDS011;33046;52.270;6.832;2022-12-29T02:52:09;1.52;;;0.88;;
47309;SDS011;33046;52.270;6.832;2022-12-29T02:54:22;0.98;;;0.60;;
47309;SDS011;33046;52.270;6.832;2022-12-29T02:56:30;2.08;;;0.60;;
47309;SDS011;33046;52.270;6.832;2022-12-29T02:58:37;0.98;;;0.63;;
47309;SDS011;33046;52.270;6.832;2022-12-29T03:00:48;1.30;;;0.70;;
47309;SDS011;33046;52.270;6.832;2022-12-29T03:03:16;1.02;;;0.57;;
47309;SDS011;33046;52.270;6.832;2022-12-29T03:05:42;1.27;;;0.52;;
47309;SDS011;33046;52.270;6.832;2022-12-29T03:08:10;0.73;;;0.60;;
47309;SDS011;33046;52.270;6.832;2022-12-29T03:10:31;2.85;;;1.38;;
47309;SDS011;33046;52.270;6.832;2022-12-29T03:12:45;2.15;;;1.05;;
47309;SDS011;33046;52.270;6.832;2022-12-29T03:14:56;0.90;;;0.47;;
47309;SDS011;33046;52.270;6.832;2022-12-29T03:17:08;0.60;;;0.40;;
47309;SDS011;33046;52.270;6.832;2022-12-29T03:19:21;1.55;;;0.75;;
47309;SDS011;33046;52.270;6.832;2022-12-29T03:21:33;1.05;;;0.57;;
47309;SDS011;33046;52.270;6.832;2022-12-29T03:23:44;2.30;;;1.17;;
47309;SDS011;33046;52.270;6.832;2022-12-29T03:25:56;1.60;;;0.47;;
47309;SDS011;33046;52.270;6.832;2022-12-29T03:28:07;0.88;;;0.45;;
47309;SDS011;33046;52.270;6.832;2022-12-29T03:30:21;2.38;;;0.82;;
47309;SDS011;33046;52.270;6.832;2022-12-29T03:32:31;0.95;;;0.60;;
47309;SDS011;33046;52.270;6.832;2022-12-29T03:34:42;1.50;;;0.50;;
47309;SDS011;33046;52.270;6.832;2022-12-29T03:36:51;1.73;;;0.40;;
47309;SDS011;33046;52.270;6.832;2022-12-29T03:39:01;3.25;;;1.42;;
47309;SDS011;33046;52.270;6.832;2022-12-29T03:41:13;4.60;;;0.82;;
47309;SDS011;33046;52.270;6.832;2022-12-29T03:43:23;2.63;;;0.60;;
47309;SDS011;33046;52.270;6.832;2022-12-29T03:45:31;2.03;;;0.43;;
47309;SDS011;33046;52.270;6.832;2022-12-29T03:47:39;1.55;;;0.50;;
47309;SDS011;33046;52.270;6.832;2022-12-29T03:49:47;2.63;;;0.40;;
47309;SDS011;33046;52.270;6.832;2022-12-29T03:51:55;2.50;;;0.50;;
47309;SDS011;33046;52.270;6.832;2022-12-29T03:54:03;1.15;;;0.30;;
47309;SDS011;33046;52.270;6.832;2022-12-29T03:56:11;0.85;;;0.30;;
47309;SDS011;33046;52.270;6.832;2022-12-29T03:58:18;4.63;;;0.50;;
47309;SDS011;33046;52.270;6.832;2022-12-29T04:00:39;1.52;;;0.40;;
47309;SDS011;33046;52.270;6.832;2022-12-29T04:02:46;1.52;;;0.40;;
47309;SDS011;33046;52.270;6.832;2022-12-29T04:04:59;1.85;;;0.60;;
47309;SDS011;33046;52.270;6.832;2022-12-29T04:07:06;1.33;;;0.43;;
47309;SDS011;33046;52.270;6.832;2022-12-29T04:09:14;0.68;;;0.40;;
47309;SDS011;33046;52.270;6.832;2022-12-29T04:11:24;1.17;;;0.45;;
47309;SDS011;33046;52.270;6.832;2022-12-29T04:13:33;0.90;;;0.40;;
47309;SDS011;33046;52.270;6.832;2022-12-29T04:15:41;1.23;;;0.30;;
47309;SDS011;33046;52.270;6.832;2022-12-29T04:17:49;1.15;;;0.40;;
47309;SDS011;33046;52.270;6.832;2022-12-29T04:19:56;3.22;;;0.40;;
47309;SDS011;33046;52.270;6.832;2022-12-29T04:22:05;1.92;;;0.75;;
47309;SDS011;33046;52.270;6.832;2022-12-29T04:24:12;1.55;;;0.77;;
47309;SDS011;33046;52.270;6.832;2022-12-29T04:26:20;1.30;;;0.40;;
47309;SDS011;33046;52.270;6.832;2022-12-29T04:28:34;2.08;;;0.32;;
47309;SDS011;33046;52.270;6.832;2022-12-29T04:31:04;1.77;;;0.63;;
47309;SDS011;33046;52.270;6.832;2022-12-29T04:33:17;1.38;;;0.30;;
47309;SDS011;33046;52.270;6.832;2022-12-29T04:35:25;2.08;;;0.40;;
47309;SDS011;33046;52.270;6.832;2022-12-29T04:37:33;1.55;;;0.60;;
47309;SDS011;33046;52.270;6.832;2022-12-29T04:39:40;0.93;;;0.20;;
47309;SDS011;33046;52.270;6.832;2022-12-29T04:41:47;1.85;;;0.30;;
47309;SDS011;33046;52.270;6.832;2022-12-29T04:43:57;1.42;;;0.32;;
47309;SDS011;33046;52.270;6.832;2022-12-29T04:46:23;2.60;;;0.60;;
47309;SDS011;33046;52.270;6.832;2022-12-29T04:48:39;1.48;;;0.50;;
47309;SDS011;33046;52.270;6.832;2022-12-29T04:51:12;1.07;;;0.43;;
47309;SDS011;33046;52.270;6.832;2022-12-29T04:53:20;3.20;;;1.42;;
47309;SDS011;33046;52.270;6.832;2022-12-29T04:55:27;1.52;;;0.30;;
47309;SDS011;33046;52.270;6.832;2022-12-29T04:57:33;1.02;;;0.77;;
47309;SDS011;33046;52.270;6.832;2022-12-29T04:59:40;1.35;;;0.40;;
47309;SDS011;33046;52.270;6.832;2022-12-29T05:01:48;2.92;;;1.15;;
47309;SDS011;33046;52.270;6.832;2022-12-29T05:03:54;0.75;;;0.38;;
47309;SDS011;33046;52.270;6.832;2022-12-29T05:06:02;1.08;;;0.50;;
47309;SDS011;33046;52.270;6.832;2022-12-29T05:08:09;2.00;;;0.40;;
47309;SDS011;33046;52.270;6.832;2022-12-29T05:10:18;1.08;;;0.30;;
47309;SDS011;33046;52.270;6.832;2022-12-29T05:12:30;1.20;;;0.35;;
47309;SDS011;33046;52.270;6.832;2022-12-29T05:14:39;9.25;;;0.80;;
47309;SDS011;33046;52.270;6.832;2022-12-29T05:16:46;1.83;;;0.40;;
47309;SDS011;33046;52.270;6.832;2022-12-29T05:18:53;0.75;;;0.47;;
47309;SDS011;33046;52.270;6.832;2022-12-29T05:21:00;1.98;;;0.45;;
47309;SDS011;33046;52.270;6.832;2022-12-29T05:23:07;1.88;;;0.40;;
47309;SDS011;33046;52.270;6.832;2022-12-29T05:25:14;2.42;;;0.32;;
47309;SDS011;33046;52.270;6.832;2022-12-29T05:27:34;2.28;;;0.52;;
47309;SDS011;33046;52.270;6.832;2022-12-29T05:30:04;1.65;;;0.50;;
47309;SDS011;33046;52.270;6.832;2022-12-29T05:32:12;1.60;;;0.43;;
47309;SDS011;33046;52.270;6.832;2022-12-29T05:34:19;1.77;;;0.70;;
47309;SDS011;33046;52.270;6.832;2022-12-29T05:36:25;3.28;;;0.95;;
47309;SDS011;33046;52.270;6.832;2022-12-29T05:38:37;1.55;;;0.50;;
47309;SDS011;33046;52.270;6.832;2022-12-29T05:40:44;3.05;;;0.75;;
47309;SDS011;33046;52.270;6.832;2022-12-29T05:43:11;3.22;;;1.60;;
47309;SDS011;33046;52.270;6.832;2022-12-29T05:45:24;4.63;;;0.60;;
47309;SDS011;33046;52.270;6.832;2022-12-29T05:47:42;1.13;;;0.30;;
47309;SDS011;33046;52.270;6.832;2022-12-29T05:50:08;1.60;;;0.40;;
47309;SDS011;33046;52.270;6.832;2022-12-29T05:52:37;1.55;;;0.40;;
47309;SDS011;33046;52.270;6.832;2022-12-29T05:54:44;3.92;;;0.70;;
47309;SDS011;33046;52.270;6.832;2022-12-29T05:56:55;3.22;;;1.10;;
47309;SDS011;33046;52.270;6.832;2022-12-29T05:59:03;2.88;;;0.50;;
47309;SDS011;33046;52.270;6.832;2022-12-29T06:01:10;6.07;;;0.88;;
47309;SDS011;33046;52.270;6.832;2022-12-29T06:03:17;2.75;;;0.82;;
47309;SDS011;33046;52.270;6.832;2022-12-29T06:05:24;4.88;;;0.70;;
47309;SDS011;33046;52.270;6.832;2022-12-29T06:07:31;4.15;;;1.02;;
47309;SDS011;33046;52.270;6.832;2022-12-29T06:09:37;2.30;;;0.50;;
47309;SDS011;33046;52.270;6.832;2022-12-29T06:11:45;5.22;;;0.50;;
47309;SDS011;33046;52.270;6.832;2022-12-29T06:13:52;5.20;;;0.52;;
47309;SDS011;33046;52.270;6.832;2022-12-29T06:16:00;3.55;;;0.40;;
47309;SDS011;33046;52.270;6.832;2022-12-29T06:18:07;5.03;;;0.70;;
47309;SDS011;33046;52.270;6.832;2022-12-29T06:20:16;2.17;;;0.50;;
47309;SDS011;33046;52.270;6.832;2022-12-29T06:22:22;3.92;;;1.17;;
47309;SDS011;33046;52.270;6.832;2022-12-29T06:24:29;1.65;;;0.50;;
47309;SDS011;33046;52.270;6.832;2022-12-29T06:26:36;3.80;;;0.50;;
47309;SDS011;33046;52.270;6.832;2022-12-29T06:28:43;4.07;;;0.57;;
47309;SDS011;33046;52.270;6.832;2022-12-29T06:30:50;1.45;;;0.40;;
47309;SDS011;33046;52.270;6.832;2022-12-29T06:32:58;2.38;;;0.40;;
47309;SDS011;33046;52.270;6.832;2022-12-29T06:35:06;1.70;;;0.40;;
47309;SDS011;33046;52.270;6.832;2022-12-29T06:37:18;2.67;;;0.60;;
47309;SDS011;33046;52.270;6.832;2022-12-29T06:39:25;2.20;;;0.30;;
47309;SDS011;33046;52.270;6.832;2022-12-29T06:41:44;3.97;;;0.57;;
47309;SDS011;33046;52.270;6.832;2022-12-29T06:44:21;5.50;;;0.60;;
47309;SDS011;33046;52.270;6.832;2022-12-29T06:46:29;3.22;;;1.02;;
47309;SDS011;33046;52.270;6.832;2022-12-29T06:48:37;2.28;;;0.70;;
47309;SDS011;33046;52.270;6.832;2022-12-29T06:50:44;2.25;;;1.23;;
47309;SDS011;33046;52.270;6.832;2022-12-29T06:52:51;2.65;;;0.70;;
47309;SDS011;33046;52.270;6.832;2022-12-29T06:54:58;4.88;;;0.88;;
47309;SDS011;33046;52.270;6.832;2022-12-29T06:57:04;3.33;;;0.60;;
47309;SDS011;33046;52.270;6.832;2022-12-29T06:59:11;2.45;;;0.50;;
47309;SDS011;33046;52.270;6.832;2022-12-29T07:01:18;6.97;;;0.90;;
47309;SDS011;33046;52.270;6.832;2022-12-29T07:03:25;4.30;;;0.68;;
47309;SDS011;33046;52.270;6.832;2022-12-29T07:05:33;2.90;;;0.70;;
47309;SDS011;33046;52.270;6.832;2022-12-29T07:07:40;4.85;;;0.93;;
47309;SDS011;33046;52.270;6.832;2022-12-29T07:09:47;6.40;;;1.63;;
47309;SDS011;33046;52.270;6.832;2022-12-29T07:11:54;6.63;;;1.50;;
47309;SDS011;33046;52.270;6.832;2022-12-29T07:14:00;4.93;;;1.13;;
47309;SDS011;33046;52.270;6.832;2022-12-29T07:16:08;2.88;;;0.75;;
47309;SDS011;33046;52.270;6.832;2022-12-29T07:18:16;5.25;;;1.20;;
47309;SDS011;33046;52.270;6.832;2022-12-29T07:20:22;7.85;;;1.58;;
47309;SDS011;33046;52.270;6.832;2022-12-29T07:22:33;7.32;;;1.52;;
47309;SDS011;33046;52.270;6.832;2022-12-29T07:24:40;2.83;;;0.50;;
47309;SDS011;33046;52.270;6.832;2022-12-29T07:26:46;5.97;;;0.90;;
47309;SDS011;33046;52.270;6.832;2022-12-29T07:28:53;3.85;;;0.50;;
47309;SDS011;33046;52.270;6.832;2022-12-29T07:31:00;3.65;;;0.80;;
47309;SDS011;33046;52.270;6.832;2022-12-29T07:33:07;6.82;;;1.23;;
47309;SDS011;33046;52.270;6.832;2022-12-29T07:35:14;6.50;;;2.00;;
47309;SDS011;33046;52.270;6.832;2022-12-29T07:37:21;3.85;;;0.82;;
47309;SDS011;33046;52.270;6.832;2022-12-29T07:39:29;4.78;;;0.65;;
47309;SDS011;33046;52.270;6.832;2022-12-29T07:41:35;4.68;;;1.33;;
47309;SDS011;33046;52.270;6.832;2022-12-29T07:43:42;5.13;;;0.93;;
47309;SDS011;33046;52.270;6.832;2022-12-29T07:46:08;3.08;;;0.70;;
47309;SDS011;33046;52.270;6.832;2022-12-29T07:48:17;5.38;;;1.38;;
47309;SDS011;33046;52.270;6.832;2022-12-29T07:50:23;2.95;;;0.70;;
47309;SDS011;33046;52.270;6.832;2022-12-29T07:52:30;4.97;;;1.23;;
47309;SDS011;33046;52.270;6.832;2022-12-29T07:54:38;4.45;;;1.00;;
47309;SDS011;33046;52.270;6.832;2022-12-29T07:56:45;6.05;;;1.25;;
47309;SDS011;33046;52.270;6.832;2022-12-29T07:58:52;7.30;;;1.45;;
47309;SDS011;33046;52.270;6.832;2022-12-29T08:00:59;2.20;;;0.40;;
47309;SDS011;33046;52.270;6.832;2022-12-29T08:03:06;4.65;;;0.68;;
47309;SDS011;33046;52.270;6.832;2022-12-29T08:05:12;3.75;;;1.52;;
47309;SDS011;33046;52.270;6.832;2022-12-29T08:07:19;5.00;;;0.80;;
47309;SDS011;33046;52.270;6.832;2022-12-29T08:09:26;2.80;;;0.80;;
47309;SDS011;33046;52.270;6.832;2022-12-29T08:11:34;5.00;;;1.15;;
47309;SDS011;33046;52.270;6.832;2022-12-29T08:13:41;4.00;;;1.23;;
47309;SDS011;33046;52.270;6.832;2022-12-29T08:15:48;4.57;;;0.77;;
47309;SDS011;33046;52.270;6.832;2022-12-29T08:17:55;3.03;;;0.70;;
47309;SDS011;33046;52.270;6.832;2022-12-29T08:20:02;6.90;;;1.58;;
47309;SDS011;33046;52.270;6.832;2022-12-29T08:22:09;4.10;;;0.90;;
47309;SDS011;33046;52.270;6.832;2022-12-29T08:24:16;4.80;;;0.82;;
47309;SDS011;33046;52.270;6.832;2022-12-29T08:26:23;4.13;;;0.82;;
47309;SDS011;33046;52.270;6.832;2022-12-29T08:28:32;3.83;;;1.17;;
47309;SDS011;33046;52.270;6.832;2022-12-29T08:30:39;5.18;;;0.70;;
47309;SDS011;33046;52.270;6.832;2022-12-29T08:32:46;4.25;;;0.80;;
47309;SDS011;33046;52.270;6.832;2022-12-29T08:34:53;5.78;;;1.48;;
47309;SDS011;33046;52.270;6.832;2022-12-29T08:36:59;4.93;;;0.60;;
47309;SDS011;33046;52.270;6.832;2022-12-29T08:39:06;2.17;;;0.60;;
47309;SDS011;33046;52.270;6.832;2022-12-29T08:41:13;8.05;;;0.70;;
47309;SDS011;33046;52.270;6.832;2022-12-29T08:43:20;3.45;;;0.65;;
47309;SDS011;33046;52.270;6.832;2022-12-29T08:45:28;5.72;;;0.90;;
47309;SDS011;33046;52.270;6.832;2022-12-29T08:47:35;4.57;;;1.67;;
47309;SDS011;33046;52.270;6.832;2022-12-29T08:49:41;6.13;;;0.95;;
47309;SDS011;33046;52.270;6.832;2022-12-29T08:51:48;4.28;;;0.70;;
47309;SDS011;33046;52.270;6.832;2022-12-29T08:53:55;3.85;;;0.57;;
47309;SDS011;33046;52.270;6.832;2022-12-29T08:56:02;7.82;;;1.00;;
47309;SDS011;33046;52.270;6.832;2022-12-29T08:58:17;7.03;;;0.60;;
47309;SDS011;33046;52.270;6.832;2022-12-29T09:00:23;4.60;;;1.13;;
47309;SDS011;33046;52.270;6.832;2022-12-29T09:02:32;4.80;;;0.82;;
47309;SDS011;33046;52.270;6.832;2022-12-29T09:04:39;7.78;;;1.27;;
47309;SDS011;33046;52.270;6.832;2022-12-29T09:06:46;9.48;;;1.67;;
47309;SDS011;33046;52.270;6.832;2022-12-29T09:08:53;5.05;;;1.98;;
47309;SDS011;33046;52.270;6.832;2022-12-29T09:11:07;2.75;;;0.60;;
47309;SDS011;33046;52.270;6.832;2022-12-29T09:13:14;5.95;;;1.23;;
47309;SDS011;33046;52.270;6.832;2022-12-29T09:15:22;7.95;;;0.88;;
47309;SDS011;33046;52.270;6.832;2022-12-29T09:17:29;4.63;;;0.82;;
47309;SDS011;33046;52.270;6.832;2022-12-29T09:19:37;4.38;;;0.90;;
47309;SDS011;33046;52.270;6.832;2022-12-29T09:21:44;3.28;;;0.70;;
47309;SDS011;33046;52.270;6.832;2022-12-29T09:23:51;6.85;;;1.42;;
47309;SDS011;33046;52.270;6.832;2022-12-29T09:25:58;6.53;;;1.05;;
47309;SDS011;33046;52.270;6.832;2022-12-29T09:28:04;5.13;;;1.10;;
47309;SDS011;33046;52.270;6.832;2022-12-29T09:30:12;9.02;;;1.83;;
47309;SDS011;33046;52.270;6.832;2022-12-29T09:32:19;4.13;;;1.00;;
47309;SDS011;33046;52.270;6.832;2022-12-29T09:34:27;3.22;;;0.80;;
47309;SDS011;33046;52.270;6.832;2022-12-29T09:36:35;3.90;;;0.80;;
47309;SDS011;33046;52.270;6.832;2022-12-29T09:38:42;5.72;;;1.08;;
47309;SDS011;33046;52.270;6.832;2022-12-29T09:40:49;7.35;;;0.95;;
47309;SDS011;33046;52.270;6.832;2022-12-29T09:43:13;4.68;;;0.82;;
47309;SDS011;33046;52.270;6.832;2022-12-29T09:45:40;6.47;;;1.00;;
47309;SDS011;33046;52.270;6.832;2022-12-29T09:47:51;5.10;;;0.70;;
47309;SDS011;33046;52.270;6.832;2022-12-29T09:49:58;4.22;;;0.77;;
47309;SDS011;33046;52.270;6.832;2022-12-29T09:52:10;5.28;;;0.82;;
47309;SDS011;33046;52.270;6.832;2022-12-29T09:54:23;7.10;;;1.90;;
47309;SDS011;33046;52.270;6.832;2022-12-29T09:56:38;5.63;;;1.30;;
47309;SDS011;33046;52.270;6.832;2022-12-29T09:58:47;3.25;;;0.60;;
47309;SDS011;33046;52.270;6.832;2022-12-29T10:01:00;4.05;;;0.68;;
47309;SDS011;33046;52.270;6.832;2022-12-29T10:03:12;6.50;;;1.65;;
47309;SDS011;33046;52.270;6.832;2022-12-29T10:05:27;4.05;;;1.05;;
47309;SDS011;33046;52.270;6.832;2022-12-29T10:07:40;4.32;;;0.63;;
47309;SDS011;33046;52.270;6.832;2022-12-29T10:09:57;4.15;;;0.60;;
47309;SDS011;33046;52.270;6.832;2022-12-29T10:12:23;4.28;;;0.90;;
47309;SDS011;33046;52.270;6.832;2022-12-29T10:14:44;4.63;;;1.50;;
47309;SDS011;33046;52.270;6.832;2022-12-29T10:17:05;6.18;;;1.17;;
47309;SDS011;33046;52.270;6.832;2022-12-29T10:19:25;7.70;;;1.00;;
47309;SDS011;33046;52.270;6.832;2022-12-29T10:21:45;7.38;;;1.00;;
47309;SDS011;33046;52.270;6.832;2022-12-29T10:24:04;5.05;;;0.90;;
47309;SDS011;33046;52.270;6.832;2022-12-29T10:26:17;9.93;;;1.27;;
47309;SDS011;33046;52.270;6.832;2022-12-29T10:28:31;8.18;;;1.15;;
47309;SDS011;33046;52.270;6.832;2022-12-29T10:30:40;4.38;;;1.52;;
47309;SDS011;33046;52.270;6.832;2022-12-29T10:32:49;9.57;;;1.45;;
47309;SDS011;33046;52.270;6.832;2022-12-29T10:35:00;7.82;;;2.42;;
47309;SDS011;33046;52.270;6.832;2022-12-29T10:37:14;3.13;;;0.75;;
47309;SDS011;33046;52.270;6.832;2022-12-29T10:39:30;7.03;;;0.90;;
47309;SDS011;33046;52.270;6.832;2022-12-29T10:41:40;7.32;;;1.48;;
47309;SDS011;33046;52.270;6.832;2022-12-29T10:43:53;7.33;;;1.50;;
47309;SDS011;33046;52.270;6.832;2022-12-29T10:46:04;7.50;;;1.25;;
47309;SDS011;33046;52.270;6.832;2022-12-29T10:48:17;5.10;;;1.13;;
47309;SDS011;33046;52.270;6.832;2022-12-29T10:50:29;5.60;;;1.42;;
47309;SDS011;33046;52.270;6.832;2022-12-29T10:52:36;10.20;;;1.00;;
47309;SDS011;33046;52.270;6.832;2022-12-29T10:54:47;4.28;;;1.65;;
47309;SDS011;33046;52.270;6.832;2022-12-29T10:56:59;5.63;;;1.17;;
47309;SDS011;33046;52.270;6.832;2022-12-29T10:59:10;3.58;;;0.70;;
47309;SDS011;33046;52.270;6.832;2022-12-29T11:01:22;8.18;;;1.00;;
47309;SDS011;33046;52.270;6.832;2022-12-29T11:03:40;6.35;;;1.40;;
47309;SDS011;33046;52.270;6.832;2022-12-29T11:05:56;6.05;;;1.05;;
47309;SDS011;33046;52.270;6.832;2022-12-29T11:08:08;4.68;;;0.75;;
47309;SDS011;33046;52.270;6.832;2022-12-29T11:10:20;4.80;;;0.75;;
47309;SDS011;33046;52.270;6.832;2022-12-29T11:12:35;3.78;;;0.90;;
47309;SDS011;33046;52.270;6.832;2022-12-29T11:14:42;4.65;;;0.85;;
47309;SDS011;33046;52.270;6.832;2022-12-29T11:16:56;2.50;;;0.50;;
47309;SDS011;33046;52.270;6.832;2022-12-29T11:19:04;3.00;;;0.65;;
47309;SDS011;33046;52.270;6.832;2022-12-29T11:21:23;3.53;;;0.70;;
47309;SDS011;33046;52.270;6.832;2022-12-29T11:23:34;4.18;;;0.85;;
47309;SDS011;33046;52.270;6.832;2022-12-29T11:25:44;3.45;;;0.77;;
47309;SDS011;33046;52.270;6.832;2022-12-29T11:27:58;3.10;;;0.70;;
47309;SDS011;33046;52.270;6.832;2022-12-29T11:30:11;2.78;;;0.65;;
47309;SDS011;33046;52.270;6.832;2022-12-29T11:32:29;4.95;;;1.02;;
47309;SDS011;33046;52.270;6.832;2022-12-29T11:34:36;6.50;;;0.90;;
47309;SDS011;33046;52.270;6.832;2022-12-29T11:36:43;4.60;;;0.77;;
47309;SDS011;33046;52.270;6.832;2022-12-29T11:38:50;4.80;;;1.80;;
47309;SDS011;33046;52.270;6.832;2022-12-29T11:41:00;4.13;;;0.63;;
47309;SDS011;33046;52.270;6.832;2022-12-29T11:43:11;4.38;;;0.90;;
47309;SDS011;33046;52.270;6.832;2022-12-29T11:45:27;6.03;;;1.17;;
47309;SDS011;33046;52.270;6.832;2022-12-29T11:47:36;3.30;;;1.00;;
47309;SDS011;33046;52.270;6.832;2022-12-29T11:49:43;6.15;;;0.88;;
47309;SDS011;33046;52.270;6.832;2022-12-29T11:51:56;4.05;;;0.80;;
47309;SDS011;33046;52.270;6.832;2022-12-29T11:54:03;3.60;;;0.85;;
47309;SDS011;33046;52.270;6.832;2022-12-29T11:56:13;5.80;;;1.08;;
47309;SDS011;33046;52.270;6.832;2022-12-29T11:58:28;4.55;;;1.88;;
47309;SDS011;33046;52.270;6.832;2022-12-29T12:00:35;5.45;;;0.75;;
47309;SDS011;33046;52.270;6.832;2022-12-29T12:02:52;4.38;;;1.13;;
47309;SDS011;33046;52.270;6.832;2022-12-29T12:05:05;3.97;;;0.70;;
47309;SDS011;33046;52.270;6.832;2022-12-29T12:07:18;8.82;;;1.55;;
47309;SDS011;33046;52.270;6.832;2022-12-29T12:09:31;5.93;;;0.93;;
47309;SDS011;33046;52.270;6.832;2022-12-29T12:11:42;4.88;;;0.80;;
47309;SDS011;33046;52.270;6.832;2022-12-29T12:13:53;5.80;;;1.35;;
47309;SDS011;33046;52.270;6.832;2022-12-29T12:16:13;11.48;;;1.17;;
47309;SDS011;33046;52.270;6.832;2022-12-29T12:18:32;5.28;;;1.30;;
47309;SDS011;33046;52.270;6.832;2022-12-29T12:20:46;4.90;;;1.13;;
47309;SDS011;33046;52.270;6.832;2022-12-29T12:22:59;7.57;;;1.10;;
47309;SDS011;33046;52.270;6.832;2022-12-29T12:25:14;8.07;;;1.17;;
47309;SDS011;33046;52.270;6.832;2022-12-29T12:27:28;8.03;;;2.07;;
47309;SDS011;33046;52.270;6.832;2022-12-29T12:29:41;5.72;;;1.50;;
47309;SDS011;33046;52.270;6.832;2022-12-29T12:31:54;7.38;;;1.50;;
47309;SDS011;33046;52.270;6.832;2022-12-29T12:34:06;4.22;;;1.92;;
47309;SDS011;33046;52.270;6.832;2022-12-29T12:36:21;3.75;;;1.35;;
47309;SDS011;33046;52.270;6.832;2022-12-29T12:38:46;6.32;;;1.30;;
47309;SDS011;33046;52.270;6.832;2022-12-29T12:41:01;6.28;;;1.42;;
47309;SDS011;33046;52.270;6.832;2022-12-29T12:43:20;5.03;;;1.10;;
47309;SDS011;33046;52.270;6.832;2022-12-29T12:45:43;10.55;;;1.52;;
47309;SDS011;33046;52.270;6.832;2022-12-29T12:47:59;3.13;;;1.00;;
47309;SDS011;33046;52.270;6.832;2022-12-29T12:50:24;6.43;;;1.40;;
47309;SDS011;33046;52.270;6.832;2022-12-29T12:52:49;9.05;;;1.50;;
47309;SDS011;33046;52.270;6.832;2022-12-29T12:55:28;6.68;;;1.40;;
47309;SDS011;33046;52.270;6.832;2022-12-29T12:57:47;7.00;;;1.70;;
47309;SDS011;33046;52.270;6.832;2022-12-29T13:00:03;5.28;;;1.50;;
47309;SDS011;33046;52.270;6.832;2022-12-29T13:02:21;7.32;;;1.50;;
47309;SDS011;33046;52.270;6.832;2022-12-29T13:04:48;6.03;;;2.42;;
47309;SDS011;33046;52.270;6.832;2022-12-29T13:07:12;7.40;;;1.95;;
47309;SDS011;33046;52.270;6.832;2022-12-29T13:09:32;10.27;;;2.58;;
47309;SDS011;33046;52.270;6.832;2022-12-29T13:11:54;7.45;;;1.63;;
47309;SDS011;33046;52.270;6.832;2022-12-29T13:14:13;6.45;;;1.65;;
47309;SDS011;33046;52.270;6.832;2022-12-29T13:16:31;9.60;;;2.58;;